createdAt,value
2023-01-31T00:08:06.793Z,8.62
2023-01-31T00:22:52.665Z,9.32
2023-01-31T00:37:42.818Z,8.82
2023-01-31T00:52:32.932Z,11.04
2023-01-31T01:07:23.288Z,7.16
2023-01-31T01:22:12.888Z,12.02
2023-01-31T01:37:02.415Z,10.96
2023-01-31T01:51:52.261Z,10.64
2023-01-31T02:06:43.118Z,11.68
2023-01-31T02:21:56.413Z,12.56
2023-01-31T02:36:54.455Z,15.58
2023-01-31T02:51:47.802Z,16.89
2023-01-31T03:06:37.642Z,15.46
2023-01-31T03:21:28.120Z,15.22
2023-01-31T03:36:33.741Z,19.73
2023-01-31T03:51:28.712Z,14.32
2023-01-31T04:06:19.405Z,20.07
2023-01-31T04:21:10.760Z,19.51
2023-01-31T04:35:59.723Z,20.48
2023-01-31T04:50:49.318Z,22.23
2023-01-31T05:05:39.282Z,23.09
2023-01-31T05:20:31.810Z,23.41
2023-01-31T05:35:24.030Z,24.68
2023-01-31T05:50:13.956Z,26.99
2023-01-31T06:05:04.428Z,28.67
2023-01-31T06:19:54.288Z,28.28
2023-01-31T06:34:44.243Z,32.38
2023-01-31T06:49:34.794Z,27.62
2023-01-31T07:04:25.730Z,29.24
2023-01-31T07:19:15.677Z,26.49
2023-01-31T07:34:05.573Z,29.84
2023-01-31T07:48:55.763Z,27.31
2023-01-31T08:03:45.029Z,24.67
2023-01-31T08:18:36.200Z,24.37
2023-01-31T08:33:27.308Z,20.49
2023-01-31T08:48:17.649Z,19.88
2023-01-31T09:03:09.139Z,19.94
2023-01-31T09:18:02.755Z,15.41
2023-01-31T09:32:54.487Z,18.92
2023-01-31T09:47:46.660Z,20.59
2023-01-31T10:02:41.641Z,19.51
2023-01-31T10:17:34.281Z,13.99
2023-01-31T10:32:32.630Z,16.87
2023-01-31T10:47:35.412Z,14.74
2023-01-31T11:02:31.775Z,13.54
2023-01-31T11:17:22.933Z,10.84
2023-01-31T11:32:13.351Z,8.43
2023-01-31T11:47:06.482Z,10.93
2023-01-31T12:02:05.103Z,10.40
2023-01-31T12:16:50.974Z,10.86
2023-01-31T12:32:04.623Z,9.17
2023-01-31T12:47:10.385Z,13.51
2023-01-31T13:01:50.430Z,9.70
2023-01-31T13:16:43.529Z,6.96
2023-01-31T13:31:34.720Z,6.92
2023-01-31T13:46:34.049Z,7.07
2023-01-31T14:01:33.707Z,7.98
2023-01-31T14:16:32.805Z,6.48
2023-01-31T14:31:27.337Z,7.07
2023-01-31T14:46:38.884Z,7.06
2023-01-31T15:01:46.934Z,8.18
2023-01-31T15:16:42.097Z,11.04
2023-01-31T15:31:35.102Z,6.80
2023-01-31T15:46:30.941Z,6.03
2023-01-31T16:01:23.980Z,7.50
2023-01-31T16:16:14.410Z,7.27
2023-01-31T16:31:10.709Z,9.23
2023-01-31T16:46:04.837Z,11.22
2023-01-31T17:00:55.409Z,7.46
2023-01-31T17:15:45.963Z,6.76
2023-01-31T17:30:35.440Z,7.79
2023-01-31T17:45:25.822Z,6.16
2023-01-31T18:00:16.081Z,8.48
2023-01-31T18:15:06.201Z,6.43
2023-01-31T18:29:57.114Z,6.92
2023-01-31T18:44:47.302Z,7.87
2023-01-31T18:59:37.648Z,8.79
2023-01-31T19:14:48.335Z,5.88
2023-01-31T19:30:06.373Z,6.06
2023-01-31T19:45:23.476Z,7.78
2023-01-31T20:00:18.848Z,7.63
2023-01-31T20:15:09.057Z,6.93
2023-01-31T20:29:59.690Z,5.14
2023-01-31T20:44:49.192Z,6.80
2023-01-31T20:59:40.325Z,9.94
2023-01-31T21:29:35.891Z,10.32
2023-01-31T21:59:24.287Z,8.22
2023-01-31T22:14:14.703Z,7.27
2023-01-31T22:29:09.362Z,7.16
2023-01-31T22:43:59.523Z,8.52
2023-01-31T22:58:50.106Z,13.39
2023-01-31T23:13:41.673Z,9.37
2023-01-31T23:28:32.685Z,7.92
2023-01-31T23:43:23.772Z,13.32
2023-01-31T23:58:14.855Z,9.82
